Terminal Aerodrome Forecast
Issued by NWS

Home | Current Version | Previous Version | Text Only | Print | Product List | Glossary On
Versions: 1 2 3 4 5 6 7 8 9 10 11 12 13 14 15 16 17 18 19
542
FTUS43 KAPX 120732 AAB
TAFPLN
TAF AMD
KPLN 120732Z 1208/1306 28015KT 6SM -SHSN OVC050
     FM121100 29010G20KT 2SM -SHSN BKN025 OVC040
     FM121500 30016G27KT 1SM -SHSN BLSN VV018
     FM121800 32016G27KT 6SM -SHSN BKN050
     FM130000 33010G18KT 6SM -SHSN BKN050
     FM130500 36006KT P6SM SCT050=

USA.gov is the U.S. government's official web portal to all federal, state and local government web resources and services.